LFOB 170830Z AUTO 21011KT 9999 FEW014 09/06 Q1015 TEMPO 25020G35KT 3000 SHRA BKN030CB

ElémentsDécodage
LFOB Station météo située sur l'aérodrome de BEAUVAIS Tillé
170830Z émis le 17 du mois à 08h30 UTC
AUTO Bulletin édité par un automate
21011KT vent du 210°, 11 noeuds
9999 visibilité horizontale supérieure à 10 Km
FEW014 nuages rares (1/8 à 2/8) à 1400 pieds
09/06 température 09°C, point de rosée 06°C
 soit une humidité relative de 81%
Q1015 la pression au niveau de la mer (QNH) est de 1015 hPa
TEMPO fluctuation temporaire prévue
25020G35KT vent du 250°, moyenne: 20 noeuds, avec rafales à 35 noeuds
3000 visibilité horizontale de 3000 mètres
SHRA averse(s) de pluie
BKN030CB nuages morcelés (5/8 à 7/8) à 3000 pieds
 présence de cumulonimbus